sensor_id;sensor_type;location;lat;lon;timestamp;P1;durP1;ratioP1;P2;durP2;ratioP2
19623;SDS011;9959;49.798;9.928;2023-04-01T00:01:48;2.85;;;1.30;;
19623;SDS011;9959;49.798;9.928;2023-04-01T00:04:15;3.40;;;1.42;;
19623;SDS011;9959;49.798;9.928;2023-04-01T00:06:42;6.97;;;1.60;;
19623;SDS011;9959;49.798;9.928;2023-04-01T00:09:09;6.97;;;1.50;;
19623;SDS011;9959;49.798;9.928;2023-04-01T00:11:36;5.63;;;2.47;;
19623;SDS011;9959;49.798;9.928;2023-04-01T00:14:03;4.55;;;1.80;;
19623;SDS011;9959;49.798;9.928;2023-04-01T00:16:30;5.65;;;1.23;;
19623;SDS011;9959;49.798;9.928;2023-04-01T00:18:57;4.88;;;1.50;;
19623;SDS011;9959;49.798;9.928;2023-04-01T00:21:24;6.30;;;1.63;;
19623;SDS011;9959;49.798;9.928;2023-04-01T00:23:51;3.58;;;1.30;;
19623;SDS011;9959;49.798;9.928;2023-04-01T00:26:18;8.85;;;1.58;;
19623;SDS011;9959;49.798;9.928;2023-04-01T00:28:48;3.60;;;1.30;;
19623;SDS011;9959;49.798;9.928;2023-04-01T00:31:15;3.42;;;1.20;;
19623;SDS011;9959;49.798;9.928;2023-04-01T00:33:42;3.22;;;1.17;;
19623;SDS011;9959;49.798;9.928;2023-04-01T00:36:13;5.72;;;1.25;;
19623;SDS011;9959;49.798;9.928;2023-04-01T00:38:45;5.13;;;1.35;;
19623;SDS011;9959;49.798;9.928;2023-04-01T00:41:13;3.40;;;1.35;;
19623;SDS011;9959;49.798;9.928;2023-04-01T00:43:41;5.88;;;1.10;;
19623;SDS011;9959;49.798;9.928;2023-04-01T00:46:13;5.95;;;1.50;;
19623;SDS011;9959;49.798;9.928;2023-04-01T00:48:42;2.38;;;1.13;;
19623;SDS011;9959;49.798;9.928;2023-04-01T00:51:15;3.67;;;1.17;;
19623;SDS011;9959;49.798;9.928;2023-04-01T00:53:47;4.43;;;1.30;;
19623;SDS011;9959;49.798;9.928;2023-04-01T00:56:22;6.75;;;1.65;;
19623;SDS011;9959;49.798;9.928;2023-04-01T00:58:58;3.10;;;1.05;;
19623;SDS011;9959;49.798;9.928;2023-04-01T01:01:28;8.32;;;1.75;;
19623;SDS011;9959;49.798;9.928;2023-04-01T01:03:57;3.63;;;1.33;;
19623;SDS011;9959;49.798;9.928;2023-04-01T01:11:59;2.70;;;0.95;;
19623;SDS011;9959;49.798;9.928;2023-04-01T01:14:44;5.75;;;1.33;;
19623;SDS011;9959;49.798;9.928;2023-04-01T01:17:23;4.05;;;1.30;;
19623;SDS011;9959;49.798;9.928;2023-04-01T01:23:01;4.70;;;1.30;;
19623;SDS011;9959;49.798;9.928;2023-04-01T01:28:06;6.35;;;1.92;;
19623;SDS011;9959;49.798;9.928;2023-04-01T01:36:28;5.40;;;1.02;;
19623;SDS011;9959;49.798;9.928;2023-04-01T01:38:56;4.43;;;1.25;;
19623;SDS011;9959;49.798;9.928;2023-04-01T01:41:25;5.30;;;1.20;;
19623;SDS011;9959;49.798;9.928;2023-04-01T01:43:55;4.85;;;1.75;;
19623;SDS011;9959;49.798;9.928;2023-04-01T01:46:24;4.13;;;1.20;;
19623;SDS011;9959;49.798;9.928;2023-04-01T01:48:54;7.03;;;1.20;;
19623;SDS011;9959;49.798;9.928;2023-04-01T01:51:25;5.18;;;1.27;;
19623;SDS011;9959;49.798;9.928;2023-04-01T01:53:54;5.78;;;1.10;;
19623;SDS011;9959;49.798;9.928;2023-04-01T01:56:21;5.13;;;1.20;;
19623;SDS011;9959;49.798;9.928;2023-04-01T01:59:03;5.88;;;1.75;;
19623;SDS011;9959;49.798;9.928;2023-04-01T02:01:37;6.85;;;1.35;;
19623;SDS011;9959;49.798;9.928;2023-04-01T02:04:09;5.00;;;1.35;;
19623;SDS011;9959;49.798;9.928;2023-04-01T02:06:38;2.17;;;1.10;;
19623;SDS011;9959;49.798;9.928;2023-04-01T02:09:09;2.33;;;1.00;;
19623;SDS011;9959;49.798;9.928;2023-04-01T02:11:40;6.60;;;1.60;;
19623;SDS011;9959;49.798;9.928;2023-04-01T02:14:16;4.82;;;1.50;;
19623;SDS011;9959;49.798;9.928;2023-04-01T02:16:59;4.40;;;1.20;;
19623;SDS011;9959;49.798;9.928;2023-04-01T02:19:32;4.68;;;1.20;;
19623;SDS011;9959;49.798;9.928;2023-04-01T02:22:04;3.65;;;1.63;;
19623;SDS011;9959;49.798;9.928;2023-04-01T02:24:35;10.88;;;1.45;;
19623;SDS011;9959;49.798;9.928;2023-04-01T02:27:08;6.90;;;1.30;;
19623;SDS011;9959;49.798;9.928;2023-04-01T02:29:39;5.07;;;1.48;;
19623;SDS011;9959;49.798;9.928;2023-04-01T02:32:07;7.85;;;1.20;;
19623;SDS011;9959;49.798;9.928;2023-04-01T02:34:35;9.02;;;1.30;;
19623;SDS011;9959;49.798;9.928;2023-04-01T02:37:03;5.30;;;1.30;;
19623;SDS011;9959;49.798;9.928;2023-04-01T02:39:30;5.10;;;1.23;;
19623;SDS011;9959;49.798;9.928;2023-04-01T02:41:57;6.70;;;1.20;;
19623;SDS011;9959;49.798;9.928;2023-04-01T02:44:24;2.58;;;1.25;;
19623;SDS011;9959;49.798;9.928;2023-04-01T02:46:52;5.10;;;1.30;;
19623;SDS011;9959;49.798;9.928;2023-04-01T02:49:20;6.50;;;1.50;;
19623;SDS011;9959;49.798;9.928;2023-04-01T02:51:46;3.45;;;1.35;;
19623;SDS011;9959;49.798;9.928;2023-04-01T02:54:14;3.20;;;1.50;;
19623;SDS011;9959;49.798;9.928;2023-04-01T02:56:41;4.90;;;1.30;;
19623;SDS011;9959;49.798;9.928;2023-04-01T02:59:08;3.97;;;1.10;;
19623;SDS011;9959;49.798;9.928;2023-04-01T03:01:35;4.85;;;1.38;;
19623;SDS011;9959;49.798;9.928;2023-04-01T03:04:02;3.80;;;1.23;;
19623;SDS011;9959;49.798;9.928;2023-04-01T03:06:28;8.63;;;1.42;;
19623;SDS011;9959;49.798;9.928;2023-04-01T03:08:54;5.82;;;1.50;;
19623;SDS011;9959;49.798;9.928;2023-04-01T03:11:21;3.85;;;1.30;;
19623;SDS011;9959;49.798;9.928;2023-04-01T03:13:49;5.43;;;1.30;;
19623;SDS011;9959;49.798;9.928;2023-04-01T03:16:16;4.72;;;1.40;;
19623;SDS011;9959;49.798;9.928;2023-04-01T03:18:43;4.95;;;1.23;;
19623;SDS011;9959;49.798;9.928;2023-04-01T03:21:14;7.57;;;1.58;;
19623;SDS011;9959;49.798;9.928;2023-04-01T03:23:45;3.90;;;1.17;;
19623;SDS011;9959;49.798;9.928;2023-04-01T03:26:12;2.78;;;1.30;;
19623;SDS011;9959;49.798;9.928;2023-04-01T03:28:40;5.93;;;1.60;;
19623;SDS011;9959;49.798;9.928;2023-04-01T03:31:07;4.50;;;1.15;;
19623;SDS011;9959;49.798;9.928;2023-04-01T03:33:37;3.67;;;1.20;;
19623;SDS011;9959;49.798;9.928;2023-04-01T03:36:05;6.05;;;1.70;;
19623;SDS011;9959;49.798;9.928;2023-04-01T03:38:33;4.35;;;1.40;;
19623;SDS011;9959;49.798;9.928;2023-04-01T03:41:01;3.58;;;1.13;;
19623;SDS011;9959;49.798;9.928;2023-04-01T03:43:28;7.72;;;1.27;;
19623;SDS011;9959;49.798;9.928;2023-04-01T03:45:54;5.03;;;1.35;;
19623;SDS011;9959;49.798;9.928;2023-04-01T03:48:24;5.25;;;1.42;;
19623;SDS011;9959;49.798;9.928;2023-04-01T03:50:52;3.63;;;1.15;;
19623;SDS011;9959;49.798;9.928;2023-04-01T03:53:19;2.08;;;1.20;;
19623;SDS011;9959;49.798;9.928;2023-04-01T03:55:46;2.88;;;1.02;;
19623;SDS011;9959;49.798;9.928;2023-04-01T03:58:13;6.63;;;1.10;;
19623;SDS011;9959;49.798;9.928;2023-04-01T04:00:40;5.28;;;1.27;;
19623;SDS011;9959;49.798;9.928;2023-04-01T04:03:10;6.15;;;1.55;;
19623;SDS011;9959;49.798;9.928;2023-04-01T04:05:37;7.18;;;1.20;;
19623;SDS011;9959;49.798;9.928;2023-04-01T04:08:12;2.50;;;1.30;;
19623;SDS011;9959;49.798;9.928;2023-04-01T04:10:40;6.70;;;1.45;;
19623;SDS011;9959;49.798;9.928;2023-04-01T04:13:07;3.83;;;1.33;;
19623;SDS011;9959;49.798;9.928;2023-04-01T04:15:34;3.20;;;1.50;;
19623;SDS011;9959;49.798;9.928;2023-04-01T04:18:01;5.55;;;1.25;;
19623;SDS011;9959;49.798;9.928;2023-04-01T04:20:28;6.80;;;1.50;;
19623;SDS011;9959;49.798;9.928;2023-04-01T04:22:55;2.28;;;0.88;;
19623;SDS011;9959;49.798;9.928;2023-04-01T04:25:22;3.78;;;1.00;;
19623;SDS011;9959;49.798;9.928;2023-04-01T04:27:48;4.80;;;1.55;;
19623;SDS011;9959;49.798;9.928;2023-04-01T04:30:16;6.75;;;1.40;;
19623;SDS011;9959;49.798;9.928;2023-04-01T04:32:43;3.55;;;1.10;;
19623;SDS011;9959;49.798;9.928;2023-04-01T04:35:10;2.38;;;1.48;;
19623;SDS011;9959;49.798;9.928;2023-04-01T04:37:37;3.47;;;1.13;;
19623;SDS011;9959;49.798;9.928;2023-04-01T04:40:04;6.85;;;1.27;;
19623;SDS011;9959;49.798;9.928;2023-04-01T04:42:31;3.80;;;1.33;;
19623;SDS011;9959;49.798;9.928;2023-04-01T04:44:58;2.47;;;1.20;;
19623;SDS011;9959;49.798;9.928;2023-04-01T04:47:25;5.90;;;1.05;;
19623;SDS011;9959;49.798;9.928;2023-04-01T04:49:52;6.43;;;1.15;;
19623;SDS011;9959;49.798;9.928;2023-04-01T04:52:19;3.47;;;1.00;;
19623;SDS011;9959;49.798;9.928;2023-04-01T04:54:46;3.75;;;1.10;;
19623;SDS011;9959;49.798;9.928;2023-04-01T04:57:12;2.42;;;0.90;;
19623;SDS011;9959;49.798;9.928;2023-04-01T04:59:39;1.90;;;0.90;;
19623;SDS011;9959;49.798;9.928;2023-04-01T05:02:07;3.58;;;0.95;;
19623;SDS011;9959;49.798;9.928;2023-04-01T05:04:35;3.03;;;1.27;;
19623;SDS011;9959;49.798;9.928;2023-04-01T05:07:03;5.35;;;1.05;;
19623;SDS011;9959;49.798;9.928;2023-04-01T05:11:57;3.33;;;1.08;;
19623;SDS011;9959;49.798;9.928;2023-04-01T05:14:24;4.05;;;1.00;;
19623;SDS011;9959;49.798;9.928;2023-04-01T05:16:51;4.20;;;1.42;;
19623;SDS011;9959;49.798;9.928;2023-04-01T05:19:18;1.45;;;0.77;;
19623;SDS011;9959;49.798;9.928;2023-04-01T05:21:45;6.03;;;0.93;;
19623;SDS011;9959;49.798;9.928;2023-04-01T05:24:12;3.00;;;1.00;;
19623;SDS011;9959;49.798;9.928;2023-04-01T05:26:38;3.40;;;1.00;;
19623;SDS011;9959;49.798;9.928;2023-04-01T05:29:05;3.70;;;1.38;;
19623;SDS011;9959;49.798;9.928;2023-04-01T05:31:34;2.10;;;1.00;;
19623;SDS011;9959;49.798;9.928;2023-04-01T05:34:02;4.00;;;0.90;;
19623;SDS011;9959;49.798;9.928;2023-04-01T05:36:29;2.33;;;0.93;;
19623;SDS011;9959;49.798;9.928;2023-04-01T05:38:57;3.92;;;1.00;;
19623;SDS011;9959;49.798;9.928;2023-04-01T05:41:24;2.53;;;1.10;;
19623;SDS011;9959;49.798;9.928;2023-04-01T05:43:51;1.83;;;0.82;;
19623;SDS011;9959;49.798;9.928;2023-04-01T05:46:18;5.05;;;0.93;;
19623;SDS011;9959;49.798;9.928;2023-04-01T05:48:45;4.15;;;1.05;;
19623;SDS011;9959;49.798;9.928;2023-04-01T05:51:13;5.18;;;1.23;;
19623;SDS011;9959;49.798;9.928;2023-04-01T05:53:41;4.38;;;0.95;;
19623;SDS011;9959;49.798;9.928;2023-04-01T05:56:08;4.38;;;1.20;;
19623;SDS011;9959;49.798;9.928;2023-04-01T05:58:38;2.83;;;1.02;;
19623;SDS011;9959;49.798;9.928;2023-04-01T06:01:06;4.22;;;1.23;;
19623;SDS011;9959;49.798;9.928;2023-04-01T06:03:41;3.80;;;1.05;;
19623;SDS011;9959;49.798;9.928;2023-04-01T06:06:15;3.42;;;1.20;;
19623;SDS011;9959;49.798;9.928;2023-04-01T06:08:51;6.03;;;1.10;;
19623;SDS011;9959;49.798;9.928;2023-04-01T06:11:25;5.00;;;1.10;;
19623;SDS011;9959;49.798;9.928;2023-04-01T06:19:04;4.60;;;1.45;;
19623;SDS011;9959;49.798;9.928;2023-04-01T06:28:20;4.05;;;1.27;;
19623;SDS011;9959;49.798;9.928;2023-04-01T06:31:01;6.18;;;0.88;;
19623;SDS011;9959;49.798;9.928;2023-04-01T06:46:57;3.63;;;1.08;;
19623;SDS011;9959;49.798;9.928;2023-04-01T06:49:47;1.50;;;0.82;;
19623;SDS011;9959;49.798;9.928;2023-04-01T06:57:56;3.95;;;1.30;;
19623;SDS011;9959;49.798;9.928;2023-04-01T07:03:23;4.15;;;0.90;;
19623;SDS011;9959;49.798;9.928;2023-04-01T07:06:01;1.88;;;0.80;;
19623;SDS011;9959;49.798;9.928;2023-04-01T07:08:31;4.25;;;1.20;;
19623;SDS011;9959;49.798;9.928;2023-04-01T07:11:06;1.52;;;1.10;;
19623;SDS011;9959;49.798;9.928;2023-04-01T07:18:51;4.35;;;1.10;;
19623;SDS011;9959;49.798;9.928;2023-04-01T07:21:32;3.63;;;1.10;;
19623;SDS011;9959;49.798;9.928;2023-04-01T07:24:09;5.50;;;1.20;;
19623;SDS011;9959;49.798;9.928;2023-04-01T07:26:43;2.72;;;0.95;;
19623;SDS011;9959;49.798;9.928;2023-04-01T07:29:13;3.70;;;1.02;;
19623;SDS011;9959;49.798;9.928;2023-04-01T07:32:00;3.20;;;1.02;;
19623;SDS011;9959;49.798;9.928;2023-04-01T07:37:38;6.55;;;2.55;;
19623;SDS011;9959;49.798;9.928;2023-04-01T07:40:07;5.15;;;1.65;;
19623;SDS011;9959;49.798;9.928;2023-04-01T07:45:52;3.67;;;1.00;;
19623;SDS011;9959;49.798;9.928;2023-04-01T07:56:13;2.47;;;1.05;;
19623;SDS011;9959;49.798;9.928;2023-04-01T07:58:59;3.05;;;0.90;;
19623;SDS011;9959;49.798;9.928;2023-04-01T08:09:33;2.92;;;0.80;;
19623;SDS011;9959;49.798;9.928;2023-04-01T08:23:30;4.93;;;0.90;;
19623;SDS011;9959;49.798;9.928;2023-04-01T08:26:08;0.68;;;0.60;;
19623;SDS011;9959;49.798;9.928;2023-04-01T08:28:44;3.03;;;0.80;;
19623;SDS011;9959;49.798;9.928;2023-04-01T08:31:21;1.75;;;0.70;;
19623;SDS011;9959;49.798;9.928;2023-04-01T08:33:58;2.40;;;1.10;;
19623;SDS011;9959;49.798;9.928;2023-04-01T08:36:32;1.25;;;0.77;;
19623;SDS011;9959;49.798;9.928;2023-04-01T08:39:08;2.47;;;0.75;;
19623;SDS011;9959;49.798;9.928;2023-04-01T08:44:26;2.15;;;0.75;;
19623;SDS011;9959;49.798;9.928;2023-04-01T08:47:20;4.18;;;0.80;;
19623;SDS011;9959;49.798;9.928;2023-04-01T08:56:06;2.75;;;0.90;;
19623;SDS011;9959;49.798;9.928;2023-04-01T08:58:45;0.73;;;0.70;;
19623;SDS011;9959;49.798;9.928;2023-04-01T09:31:12;2.72;;;0.80;;
19623;SDS011;9959;49.798;9.928;2023-04-01T09:50:20;1.95;;;0.60;;
19623;SDS011;9959;49.798;9.928;2023-04-01T10:11:15;0.60;;;0.50;;
19623;SDS011;9959;49.798;9.928;2023-04-01T10:22:09;2.00;;;0.70;;
19623;SDS011;9959;49.798;9.928;2023-04-01T10:28:00;0.65;;;0.65;;
19623;SDS011;9959;49.798;9.928;2023-04-01T10:30:36;0.98;;;0.70;;
19623;SDS011;9959;49.798;9.928;2023-04-01T10:44:28;0.85;;;0.70;;
19623;SDS011;9959;49.798;9.928;2023-04-01T10:50:26;2.38;;;0.82;;
19623;SDS011;9959;49.798;9.928;2023-04-01T10:53:32;0.70;;;0.70;;
19623;SDS011;9959;49.798;9.928;2023-04-01T10:55:51;0.60;;;0.60;;
19623;SDS011;9959;49.798;9.928;2023-04-01T10:58:35;1.40;;;0.57;;
19623;SDS011;9959;49.798;9.928;2023-04-01T11:01:22;0.88;;;0.82;;
19623;SDS011;9959;49.798;9.928;2023-04-01T11:25:45;0.70;;;0.70;;
19623;SDS011;9959;49.798;9.928;2023-04-01T11:45:12;2.40;;;0.90;;
19623;SDS011;9959;49.798;9.928;2023-04-01T11:47:47;1.98;;;1.00;;
19623;SDS011;9959;49.798;9.928;2023-04-01T11:53:23;1.25;;;0.98;;
19623;SDS011;9959;49.798;9.928;2023-04-01T11:58:58;2.35;;;1.20;;
19623;SDS011;9959;49.798;9.928;2023-04-01T12:15:10;1.10;;;1.00;;
19623;SDS011;9959;49.798;9.928;2023-04-01T12:20:50;1.60;;;1.08;;
19623;SDS011;9959;49.798;9.928;2023-04-01T12:23:39;1.42;;;0.90;;
19623;SDS011;9959;49.798;9.928;2023-04-01T12:26:15;1.00;;;0.82;;
19623;SDS011;9959;49.798;9.928;2023-04-01T12:34:41;1.13;;;1.00;;
19623;SDS011;9959;49.798;9.928;2023-04-01T12:37:21;1.63;;;1.20;;
19623;SDS011;9959;49.798;9.928;2023-04-01T12:42:57;1.95;;;1.05;;
19623;SDS011;9959;49.798;9.928;2023-04-01T12:53:54;1.10;;;1.00;;
19623;SDS011;9959;49.798;9.928;2023-04-01T13:01:49;1.25;;;0.90;;
19623;SDS011;9959;49.798;9.928;2023-04-01T13:21:44;1.75;;;1.17;;
19623;SDS011;9959;49.798;9.928;2023-04-01T13:24:50;1.08;;;1.00;;
19623;SDS011;9959;49.798;9.928;2023-04-01T13:38:06;1.00;;;0.90;;
19623;SDS011;9959;49.798;9.928;2023-04-01T13:44:12;1.13;;;1.02;;
19623;SDS011;9959;49.798;9.928;2023-04-01T13:46:55;1.13;;;1.00;;
19623;SDS011;9959;49.798;9.928;2023-04-01T14:00:19;1.30;;;1.20;;
19623;SDS011;9959;49.798;9.928;2023-04-01T14:11:07;1.08;;;0.93;;
19623;SDS011;9959;49.798;9.928;2023-04-01T14:22:03;1.00;;;1.00;;
19623;SDS011;9959;49.798;9.928;2023-04-01T14:35:37;0.88;;;0.88;;
19623;SDS011;9959;49.798;9.928;2023-04-01T14:43:42;1.20;;;1.10;;
19623;SDS011;9959;49.798;9.928;2023-04-01T14:49:02;1.20;;;0.90;;
19623;SDS011;9959;49.798;9.928;2023-04-01T14:51:40;1.48;;;1.05;;
19623;SDS011;9959;49.798;9.928;2023-04-01T14:56:41;1.10;;;1.00;;
19623;SDS011;9959;49.798;9.928;2023-04-01T14:59:32;1.00;;;0.90;;
19623;SDS011;9959;49.798;9.928;2023-04-01T15:07:35;0.95;;;0.95;;
19623;SDS011;9959;49.798;9.928;2023-04-01T15:18:09;3.33;;;1.30;;
19623;SDS011;9959;49.798;9.928;2023-04-01T15:23:34;1.70;;;1.23;;
19623;SDS011;9959;49.798;9.928;2023-04-01T15:26:19;2.65;;;1.25;;
19623;SDS011;9959;49.798;9.928;2023-04-01T15:29:11;2.47;;;1.50;;
19623;SDS011;9959;49.798;9.928;2023-04-01T15:37:27;1.30;;;1.20;;
19623;SDS011;9959;49.798;9.928;2023-04-01T15:42:59;1.73;;;1.35;;
19623;SDS011;9959;49.798;9.928;2023-04-01T15:45:41;1.55;;;1.40;;
19623;SDS011;9959;49.798;9.928;2023-04-01T15:51:10;1.92;;;1.33;;
19623;SDS011;9959;49.798;9.928;2023-04-01T15:57:06;2.05;;;1.80;;
19623;SDS011;9959;49.798;9.928;2023-04-01T16:04:58;2.45;;;1.92;;
19623;SDS011;9959;49.798;9.928;2023-04-01T16:16:14;8.05;;;3.75;;
19623;SDS011;9959;49.798;9.928;2023-04-01T16:26:54;6.97;;;2.83;;
19623;SDS011;9959;49.798;9.928;2023-04-01T16:32:18;2.70;;;1.55;;
19623;SDS011;9959;49.798;9.928;2023-04-01T16:34:56;3.38;;;2.00;;
19623;SDS011;9959;49.798;9.928;2023-04-01T16:42:48;2.88;;;1.90;;
19623;SDS011;9959;49.798;9.928;2023-04-01T16:45:29;3.85;;;2.30;;
19623;SDS011;9959;49.798;9.928;2023-04-01T16:48:21;1.55;;;1.40;;
19623;SDS011;9959;49.798;9.928;2023-04-01T16:51:11;2.90;;;1.63;;
19623;SDS011;9959;49.798;9.928;2023-04-01T16:53:43;2.22;;;1.50;;
19623;SDS011;9959;49.798;9.928;2023-04-01T16:56:22;1.70;;;1.40;;
19623;SDS011;9959;49.798;9.928;2023-04-01T17:07:21;3.20;;;2.15;;
19623;SDS011;9959;49.798;9.928;2023-04-01T17:10:04;2.58;;;1.90;;
19623;SDS011;9959;49.798;9.928;2023-04-01T17:15:33;1.52;;;1.23;;
19623;SDS011;9959;49.798;9.928;2023-04-01T17:18:19;2.13;;;1.40;;
19623;SDS011;9959;49.798;9.928;2023-04-01T17:21:04;1.98;;;1.33;;
19623;SDS011;9959;49.798;9.928;2023-04-01T17:29:02;5.65;;;2.40;;
19623;SDS011;9959;49.798;9.928;2023-04-01T17:34:31;1.38;;;1.27;;
19623;SDS011;9959;49.798;9.928;2023-04-01T17:37:09;3.70;;;1.70;;
19623;SDS011;9959;49.798;9.928;2023-04-01T17:47:49;4.43;;;2.10;;
19623;SDS011;9959;49.798;9.928;2023-04-01T17:58:58;4.88;;;2.20;;
19623;SDS011;9959;49.798;9.928;2023-04-01T18:04:10;2.95;;;1.83;;
19623;SDS011;9959;49.798;9.928;2023-04-01T18:14:54;6.72;;;3.22;;
19623;SDS011;9959;49.798;9.928;2023-04-01T18:17:38;6.68;;;2.78;;
19623;SDS011;9959;49.798;9.928;2023-04-01T18:25:43;3.10;;;2.05;;
19623;SDS011;9959;49.798;9.928;2023-04-01T18:28:16;3.20;;;2.03;;
19623;SDS011;9959;49.798;9.928;2023-04-01T18:31:04;2.03;;;1.80;;
19623;SDS011;9959;49.798;9.928;2023-04-01T18:41:26;3.40;;;2.00;;
19623;SDS011;9959;49.798;9.928;2023-04-01T18:44:04;5.82;;;2.45;;
19623;SDS011;9959;49.798;9.928;2023-04-01T18:46:52;3.03;;;2.20;;
19623;SDS011;9959;49.798;9.928;2023-04-01T18:49:29;5.15;;;1.83;;
19623;SDS011;9959;49.798;9.928;2023-04-01T18:57:51;2.00;;;1.80;;
19623;SDS011;9959;49.798;9.928;2023-04-01T19:00:28;5.45;;;1.88;;
19623;SDS011;9959;49.798;9.928;2023-04-01T19:05:59;2.63;;;1.70;;
19623;SDS011;9959;49.798;9.928;2023-04-01T19:08:35;4.25;;;2.20;;
19623;SDS011;9959;49.798;9.928;2023-04-01T19:16:39;2.15;;;1.73;;
19623;SDS011;9959;49.798;9.928;2023-04-01T19:21:44;2.85;;;2.05;;
19623;SDS011;9959;49.798;9.928;2023-04-01T19:27:06;3.20;;;1.98;;
19623;SDS011;9959;49.798;9.928;2023-04-01T19:37:57;2.70;;;1.77;;
19623;SDS011;9959;49.798;9.928;2023-04-01T19:43:08;2.67;;;1.98;;
19623;SDS011;9959;49.798;9.928;2023-04-01T19:51:25;4.05;;;2.00;;
19623;SDS011;9959;49.798;9.928;2023-04-01T20:00:36;2.22;;;1.73;;
19623;SDS011;9959;49.798;9.928;2023-04-01T20:05:55;2.60;;;2.00;;
19623;SDS011;9959;49.798;9.928;2023-04-01T20:11:14;2.67;;;1.80;;
19623;SDS011;9959;49.798;9.928;2023-04-01T20:19:37;5.55;;;1.92;;
19623;SDS011;9959;49.798;9.928;2023-04-01T20:22:17;4.45;;;1.75;;
19623;SDS011;9959;49.798;9.928;2023-04-01T20:24:57;1.85;;;1.60;;
19623;SDS011;9959;49.798;9.928;2023-04-01T20:27:32;1.55;;;1.35;;
19623;SDS011;9959;49.798;9.928;2023-04-01T20:30:19;1.85;;;1.40;;
19623;SDS011;9959;49.798;9.928;2023-04-01T20:57:18;3.42;;;1.83;;
19623;SDS011;9959;49.798;9.928;2023-04-01T21:00:07;3.47;;;1.67;;
19623;SDS011;9959;49.798;9.928;2023-04-01T21:16:30;2.53;;;1.60;;
19623;SDS011;9959;49.798;9.928;2023-04-01T21:22:02;1.90;;;1.58;;
19623;SDS011;9959;49.798;9.928;2023-04-01T21:24:42;3.63;;;2.10;;
19623;SDS011;9959;49.798;9.928;2023-04-01T21:30:31;2.40;;;1.35;;
19623;SDS011;9959;49.798;9.928;2023-04-01T21:47:24;2.63;;;1.70;;
19623;SDS011;9959;49.798;9.928;2023-04-01T22:05:17;2.28;;;1.73;;
19623;SDS011;9959;49.798;9.928;2023-04-01T22:13:15;3.22;;;1.50;;
19623;SDS011;9959;49.798;9.928;2023-04-01T22:21:55;2.03;;;1.50;;
19623;SDS011;9959;49.798;9.928;2023-04-01T22:27:18;3.15;;;1.52;;
19623;SDS011;9959;49.798;9.928;2023-04-01T22:32:48;3.00;;;1.77;;
19623;SDS011;9959;49.798;9.928;2023-04-01T22:35:38;3.55;;;1.73;;
19623;SDS011;9959;49.798;9.928;2023-04-01T22:41:18;1.55;;;1.38;;
19623;SDS011;9959;49.798;9.928;2023-04-01T22:44:13;2.47;;;1.65;;
19623;SDS011;9959;49.798;9.928;2023-04-01T22:46:56;2.22;;;1.60;;
19623;SDS011;9959;49.798;9.928;2023-04-01T22:49:41;2.28;;;1.80;;
19623;SDS011;9959;49.798;9.928;2023-04-01T22:52:20;2.40;;;1.42;;
19623;SDS011;9959;49.798;9.928;2023-04-01T22:55:20;2.35;;;1.60;;
19623;SDS011;9959;49.798;9.928;2023-04-01T23:01:05;1.70;;;1.60;;
19623;SDS011;9959;49.798;9.928;2023-04-01T23:03:40;2.38;;;1.80;;
19623;SDS011;9959;49.798;9.928;2023-04-01T23:06:26;4.68;;;1.75;;
19623;SDS011;9959;49.798;9.928;2023-04-01T23:09:17;1.88;;;1.40;;
19623;SDS011;9959;49.798;9.928;2023-04-01T23:11:51;1.85;;;1.55;;
19623;SDS011;9959;49.798;9.928;2023-04-01T23:20:05;2.70;;;1.80;;
19623;SDS011;9959;49.798;9.928;2023-04-01T23:22:44;1.83;;;1.50;;
19623;SDS011;9959;49.798;9.928;2023-04-01T23:27:43;2.08;;;1.73;;
19623;SDS011;9959;49.798;9.928;2023-04-01T23:38:13;3.35;;;1.77;;
19623;SDS011;9959;49.798;9.928;2023-04-01T23:40:41;5.80;;;1.90;;
19623;SDS011;9959;49.798;9.928;2023-04-01T23:43:17;2.67;;;1.70;;
19623;SDS011;9959;49.798;9.928;2023-04-01T23:45:56;3.67;;;1.90;;
19623;SDS011;9959;49.798;9.928;2023-04-01T23:48:33;3.28;;;1.40;;
19623;SDS011;9959;49.798;9.928;2023-04-01T23:51:04;2.35;;;1.90;;
19623;SDS011;9959;49.798;9.928;2023-04-01T23:53:42;3.35;;;2.00;;
19623;SDS011;9959;49.798;9.928;2023-04-01T23:56:11;3.15;;;1.80;;
19623;SDS011;9959;49.798;9.928;2023-04-01T23:58:41;1.95;;;1.73;;
